ロゾー の空港の天気 - METARとTAF

ケインフィールド空港 ( TDCF / DCF ) - ドミニカ国 ロゾー
飛行場実況気象(Metar)
観測時間04/09 16:00 AST (04/09 20:00 UTC)
風向・風速北北西 4m/s
視程10km以上
天気現象
少しの雲 雲底高度 850m
気温29℃
湿度70%
気圧1011hPa
METARTDCF 092000Z 34008KT 9999 FEW028 29/23 Q1011
過去の天気等 Google飛行場航空写真 Wunderground天気予報

過去48時間のMETAR

飛行場予報(TAF)
データがありません